Flight Track Log - Related Links

Times and Time Zones

All times are in EDT time to prevent confusion due to time zone crossing. See the N2116L flight status page for this flight to view local times or setup timezone preferences in your user account.

Time Position Orientation Groundspeed Altitude Reporting Facility
EDT Latitude Longitude Course Direction KTS MPH feet Rate Location/Type
Wed 06:07:17 PM 36.0261 -83.8344 North 89 102 2,900  Level Indianapolis Center
Wed 06:08:19 PM 36.0500 -83.8350 359° North 88 101 3,400 484 Climbing Indianapolis Center
Wed 06:09:21 PM 36.0758 -83.8369 357° North 90 104 3,900 415 Climbing Indianapolis Center
Wed 06:10:29 PM 36.1103 -83.8461 348° North 92 106 4,300 484 Climbing Atlanta Center
Wed 06:11:25 PM 36.1378 -83.8442 North 114 131 4,900 559 Climbing Indianapolis Center
Wed 06:12:00 PM 36.2096 -83.8833 North  Level FlightAware Approximate
Wed 06:12:27 PM 36.1739 -83.8483 355° North 126 145 5,400  Level Indianapolis Center
Wed 06:13:29 PM 36.2161 -83.8517 356° North 128 147 6,100 581 Climbing Indianapolis Center
Wed 06:14:31 PM 36.2525 -83.8564 354° North 130 150 6,600 532 Climbing Indianapolis Center
Wed 06:15:33 PM 36.2883 -83.8600 355° North 130 150 7,200 532 Climbing Indianapolis Center
Wed 06:16:35 PM 36.3228 -83.8644 354° North 126 145 7,700 387 Climbing Indianapolis Center
Wed 06:17:37 PM 36.3544 -83.8658 358° North 119 137 8,000 145 Climbing Indianapolis Center
Wed 06:18:39 PM 36.3939 -83.8697 355° North 131 151 8,000  Level Indianapolis Center
Wed 06:19:41 PM 36.4481 -83.8767 354° North 154 177 8,000  Level Indianapolis Center
Wed 06:20:43 PM 36.4911 -83.8822 354° North 156 180 8,000  Level Indianapolis Center
Wed 06:21:46 PM 36.5350 -83.8869 355° North 158 182 8,000  Level Indianapolis Center
Wed 06:22:48 PM 36.5781 -83.8917 355° North 157 181 8,000  Level Indianapolis Center
Wed 06:23:50 PM 36.6222 -83.8942 357° North 157 181 8,000  Level Indianapolis Center
Wed 06:24:52 PM 36.6750 -83.9014 354° North 161 185 8,000  Level Indianapolis Center
Wed 06:25:54 PM 36.7200 -83.9061 355° North 160 184 8,000  Level Indianapolis Center
Wed 06:26:56 PM 36.7633 -83.9108 355° North 159 183 8,000  Level Indianapolis Center
Wed 06:27:58 PM 36.8097 -83.9161 355° North 163 188 8,000  Level Indianapolis Center
Wed 06:29:00 PM 36.8533 -83.9208 355° North 160 184 8,000  Level Indianapolis Center
Wed 06:30:02 PM 36.9058 -83.9264 355° North 161 185 8,000  Level Indianapolis Center
Wed 06:31:04 PM 36.9506 -83.9306 356° North 161 185 8,000  Level Indianapolis Center
Wed 06:32:06 PM 36.9947 -83.9353 355° North 160 184 8,000  Level Indianapolis Center
Wed 06:33:08 PM 37.0394 -83.9406 355° North 161 185 8,000  Level Indianapolis Center
Wed 06:34:10 PM 37.0847 -83.9461 354° North 162 186 8,000  Level Indianapolis Center
Wed 06:35:12 PM 37.1294 -83.9500 356° North 162 186 8,000  Level Indianapolis Center
Wed 06:36:14 PM 37.1822 -83.9561 355° North 162 186 8,000  Level Indianapolis Center
Wed 06:37:16 PM 37.2253 -83.9606 355° North 158 182 8,000  Level Indianapolis Center
Wed 06:38:18 PM 37.2703 -83.9658 355° North 160 184 8,000  Level Indianapolis Center
Wed 06:39:20 PM 37.3153 -83.9706 355° North 161 185 8,000  Level Indianapolis Center
Wed 06:40:22 PM 37.3586 -83.9764 354° North 159 183 8,000  Level Indianapolis Center
Wed 06:41:24 PM 37.4028 -83.9797 357° North 158 182 8,000  Level Indianapolis Center
Wed 06:42:26 PM 37.4553 -83.9858 355° North 161 185 8,000  Level Indianapolis Center
Wed 06:43:29 PM 37.4992 -83.9903 355° North 160 184 8,000  Level Indianapolis Center
Wed 06:44:31 PM 37.5419 -83.9950 355° North 156 180 8,000  Level Indianapolis Center
Wed 06:45:33 PM 37.5861 -84.0000 355° North 157 181 8,000  Level Indianapolis Center
Wed 06:46:35 PM 37.6303 -84.0058 354° North 158 182 8,000  Level Indianapolis Center
Wed 06:47:37 PM 37.6819 -84.0117 355° North 160 184 8,000  Level Indianapolis Center
Wed 06:48:39 PM 37.7281 -84.0156 356° North 163 188 8,000  Level Indianapolis Center
Wed 06:49:41 PM 37.7722 -84.0214 354° North 161 185 8,000  Level Indianapolis Center
Wed 06:50:43 PM 37.8164 -84.0269 354° North 161 185 8,000  Level Indianapolis Center
Wed 06:51:45 PM 37.8619 -84.0317 355° North 162 186 8,000  Level Indianapolis Center
Wed 06:52:47 PM 37.9078 -84.0364 355° North 164 189 8,000  Level Indianapolis Center
Wed 06:53:49 PM 37.9606 -84.0414 356° North 163 188 8,000  Level Indianapolis Center
Wed 06:54:51 PM 38.0061 -84.0478 354° North 164 189 8,000  Level Indianapolis Center
Wed 06:55:53 PM 38.0514 -84.0525 355° North 162 186 8,000  Level Indianapolis Center
Wed 06:56:55 PM 38.0975 -84.0572 355° North 166 191 8,000  Level Indianapolis Center
Wed 06:57:57 PM 38.1428 -84.0611 356° North 164 189 8,000 290 Level Indianapolis Center
Wed 06:58:59 PM 38.1908 -84.0653 356° North 150 173 8,600 484 Climbing Indianapolis Center
Wed 07:00:01 PM 38.2269 -84.0692 355° North 136 157 9,000 194 Climbing Indianapolis Center
Wed 07:01:03 PM 38.2631 -84.0750 353° North 131 151 9,000  Level Indianapolis Center
Wed 07:02:05 PM 38.3044 -84.0789 356° North 141 162 9,000  Level Indianapolis Center
Wed 07:03:08 PM 38.3453 -84.0764 North 146 168 9,000 -48 Level Indianapolis Center
Wed 07:04:10 PM 38.3869 -84.0764 360° North 148 170 8,900  Descending Indianapolis Center
Wed 07:05:12 PM 38.4358 -84.0878 350° North 151 174 9,000 48 Climbing Indianapolis Center
Wed 07:06:14 PM 38.4750 -84.0981 348° North 145 167 9,000  Level Indianapolis Center
Wed 07:07:16 PM 38.5142 -84.1028 355° North 141 162 9,000 -48 Level Indianapolis Center
Wed 07:08:18 PM 38.5553 -84.1081 354° North 147 169 8,900 -290 Descending Indianapolis Center
Wed 07:09:20 PM 38.5994 -84.1125 356° North 156 180 8,400 -435 Descending Indianapolis Center
Wed 07:10:22 PM 38.6483 -84.1189 354° North 164 189 8,000 -194 Descending Indianapolis Center
Wed 07:11:24 PM 38.6917 -84.1242 355° North 158 182 8,000  Level Indianapolis Center
Wed 07:12:26 PM 38.7319 -84.1269 357° North 146 168 8,000 -242 Level Indianapolis Center
Wed 07:13:28 PM 38.7744 -84.1361 350° North 154 177 7,500 -484 Descending Indianapolis Center
Wed 07:14:30 PM 38.8275 -84.1542 345° North 166 191 7,000 -484 Descending Indianapolis Center
Wed 07:15:32 PM 38.8750 -84.1658 349° North 171 197 6,500 -484 Descending Indianapolis Center
Wed 07:16:34 PM 38.9206 -84.1783 348° North 168 193 6,000 -435 Descending Indianapolis Center
Wed 07:17:36 PM 38.9669 -84.1928 346° North 169 194 5,600 -435 Descending Indianapolis Center
Wed 07:18:38 PM 39.0133 -84.2047 349° North 168 193 5,100 -300 Descending Indianapolis Center
Wed 07:19:16 PM 39.0458 -84.2178 343° North 165 190 5,100  Level Indianapolis Center
Wed 07:20:29 PM 39.0950 -84.2292 350° North 147 169 5,100  Level Indianapolis Center
Wed 07:21:30 PM 39.1339 -84.2417 346° North 144 166 5,100  Level Indianapolis Center
Wed 07:22:25 PM 39.1706 -84.2508 349° North 146 168 5,100  Level Indianapolis Center
Wed 07:23:25 PM 39.2114 -84.2633 347° North 147 169 5,100  Level Indianapolis Center
Wed 07:24:26 PM 39.2503 -84.2731 349° North 144 166 5,100  Level Indianapolis Center
Wed 07:25:45 PM 39.3014 -84.2875 348° North 142 163 5,100  Level Indianapolis Center
Wed 07:26:28 PM 39.3281 -84.2950 348° North 142 163 5,100  Level Indianapolis Center
Wed 07:27:28 PM 39.3686 -84.3078 346° North 143 165 5,100 -324 Level Indianapolis Center
Wed 07:28:56 PM 39.4192 -84.3181 351° North 141 162 4,300 -590 Descending Indianapolis Center
Wed 07:29:30 PM 39.4450 -84.3025 25° Northeast 154 177 3,900 -532 Descending Indianapolis Center
Wed 07:31:00 PM 39.4953 -84.2783 20° North 143 165 3,200 -467 Descending Indianapolis Center

Login

Don't have an account? Register now (free) for customized features, flight alerts, and more!